sensor_id;sensor_type;location;lat;lon;timestamp;pressure;altitude;pressure_sealevel;temperature;humidity
2178;BME280;1095;50.992;6.798;2023-08-20T00:01:04;101331.00;;;21.22;100.00
2178;BME280;1095;50.992;6.798;2023-08-20T00:03:32;101333.84;;;21.13;100.00
2178;BME280;1095;50.992;6.798;2023-08-20T00:05:59;101336.50;;;21.07;100.00
2178;BME280;1095;50.992;6.798;2023-08-20T00:08:27;101332.03;;;21.01;100.00
2178;BME280;1095;50.992;6.798;2023-08-20T00:10:54;101334.69;;;21.01;100.00
2178;BME280;1095;50.992;6.798;2023-08-20T00:13:20;101332.03;;;21.01;100.00
2178;BME280;1095;50.992;6.798;2023-08-20T00:15:48;101345.75;;;20.98;100.00
2178;BME280;1095;50.992;6.798;2023-08-20T00:18:15;101341.03;;;20.86;100.00
2178;BME280;1095;50.992;6.798;2023-08-20T00:20:42;101351.69;;;20.93;100.00
2178;BME280;1095;50.992;6.798;2023-08-20T00:23:11;101342.25;;;20.97;100.00
2178;BME280;1095;50.992;6.798;2023-08-20T00:25:40;101342.25;;;20.97;100.00
2178;BME280;1095;50.992;6.798;2023-08-20T00:28:06;101344.50;;;21.00;100.00
2178;BME280;1095;50.992;6.798;2023-08-20T00:30:33;101349.63;;;21.02;100.00
2178;BME280;1095;50.992;6.798;2023-08-20T00:33:00;101359.03;;;21.04;100.00
2178;BME280;1095;50.992;6.798;2023-08-20T00:35:26;101357.38;;;21.10;100.00
2178;BME280;1095;50.992;6.798;2023-08-20T00:37:53;101347.38;;;21.12;100.00
2178;BME280;1095;50.992;6.798;2023-08-20T00:40:20;101343.50;;;21.21;100.00
2178;BME280;1095;50.992;6.798;2023-08-20T00:42:48;101352.47;;;21.20;100.00
2178;BME280;1095;50.992;6.798;2023-08-20T00:45:15;101341.00;;;21.13;100.00
2178;BME280;1095;50.992;6.798;2023-08-20T00:47:43;101346.53;;;21.11;100.00
2178;BME280;1095;50.992;6.798;2023-08-20T00:50:09;101357.00;;;21.06;100.00
2178;BME280;1095;50.992;6.798;2023-08-20T00:52:41;101351.88;;;21.05;100.00
2178;BME280;1095;50.992;6.798;2023-08-20T00:55:09;101348.78;;;21.08;100.00
2178;BME280;1095;50.992;6.798;2023-08-20T00:57:36;101336.94;;;21.04;100.00
2178;BME280;1095;50.992;6.798;2023-08-20T01:00:06;101332.84;;;20.95;100.00
2178;BME280;1095;50.992;6.798;2023-08-20T01:02:35;101327.94;;;20.85;100.00
2178;BME280;1095;50.992;6.798;2023-08-20T01:05:03;101324.09;;;20.74;100.00
2178;BME280;1095;50.992;6.798;2023-08-20T01:07:40;101331.66;;;20.77;100.00
2178;BME280;1095;50.992;6.798;2023-08-20T01:10:24;101326.13;;;20.79;100.00
2178;BME280;1095;50.992;6.798;2023-08-20T01:12:54;101326.97;;;20.79;100.00
2178;BME280;1095;50.992;6.798;2023-08-20T01:15:23;101320.81;;;20.72;100.00
2178;BME280;1095;50.992;6.798;2023-08-20T01:17:49;101313.47;;;20.68;100.00
2178;BME280;1095;50.992;6.798;2023-08-20T01:20:16;101316.13;;;20.54;100.00
2178;BME280;1095;50.992;6.798;2023-08-20T01:23:20;101316.91;;;20.42;100.00
2178;BME280;1095;50.992;6.798;2023-08-20T01:26:06;101318.34;;;20.38;100.00
2178;BME280;1095;50.992;6.798;2023-08-20T01:28:36;101325.91;;;20.28;100.00
2178;BME280;1095;50.992;6.798;2023-08-20T01:31:04;101336.53;;;20.28;100.00
2178;BME280;1095;50.992;6.798;2023-08-20T01:33:32;101325.66;;;20.16;100.00
2178;BME280;1095;50.992;6.798;2023-08-20T01:35:59;101334.06;;;20.19;100.00
2178;BME280;1095;50.992;6.798;2023-08-20T01:38:25;101327.72;;;20.20;100.00
2178;BME280;1095;50.992;6.798;2023-08-20T01:40:52;101326.50;;;20.23;100.00
2178;BME280;1095;50.992;6.798;2023-08-20T01:43:19;101329.75;;;20.18;100.00
2178;BME280;1095;50.992;6.798;2023-08-20T01:45:46;101330.38;;;20.20;100.00
2178;BME280;1095;50.992;6.798;2023-08-20T01:48:13;101329.16;;;20.16;100.00
2178;BME280;1095;50.992;6.798;2023-08-20T01:50:40;101346.72;;;20.17;100.00
2178;BME280;1095;50.992;6.798;2023-08-20T01:53:06;101340.41;;;20.18;100.00
2178;BME280;1095;50.992;6.798;2023-08-20T01:55:33;101337.53;;;20.20;100.00
2178;BME280;1095;50.992;6.798;2023-08-20T01:57:59;101348.16;;;20.20;100.00
2178;BME280;1095;50.992;6.798;2023-08-20T02:00:26;101353.28;;;20.21;100.00
2178;BME280;1095;50.992;6.798;2023-08-20T02:02:55;101349.59;;;20.23;100.00
2178;BME280;1095;50.992;6.798;2023-08-20T02:05:21;101342.66;;;20.21;100.00
2178;BME280;1095;50.992;6.798;2023-08-20T02:07:48;101354.09;;;20.22;100.00
2178;BME280;1095;50.992;6.798;2023-08-20T02:10:15;101361.03;;;20.16;100.00
2178;BME280;1095;50.992;6.798;2023-08-20T02:12:41;101361.44;;;20.20;100.00
2178;BME280;1095;50.992;6.798;2023-08-20T02:15:09;101352.47;;;20.28;100.00
2178;BME280;1095;50.992;6.798;2023-08-20T02:17:37;101352.06;;;20.24;100.00
2178;BME280;1095;50.992;6.798;2023-08-20T02:20:06;101355.53;;;20.25;100.00
2178;BME280;1095;50.992;6.798;2023-08-20T02:22:35;101351.44;;;20.22;100.00
2178;BME280;1095;50.992;6.798;2023-08-20T02:25:02;101350.81;;;20.20;100.00
2178;BME280;1095;50.992;6.798;2023-08-20T02:27:28;101357.34;;;20.17;100.00
2178;BME280;1095;50.992;6.798;2023-08-20T02:29:55;101355.72;;;20.16;100.00
2178;BME280;1095;50.992;6.798;2023-08-20T02:32:21;101356.97;;;20.20;100.00
2178;BME280;1095;50.992;6.798;2023-08-20T02:34:49;101367.16;;;20.17;100.00
2178;BME280;1095;50.992;6.798;2023-08-20T02:37:17;101371.66;;;20.16;100.00
2178;BME280;1095;50.992;6.798;2023-08-20T02:39:44;101374.94;;;20.18;100.00
2178;BME280;1095;50.992;6.798;2023-08-20T02:42:11;101380.44;;;20.17;100.00
2178;BME280;1095;50.992;6.798;2023-08-20T02:44:37;101394.16;;;20.20;100.00
2178;BME280;1095;50.992;6.798;2023-08-20T02:47:04;101388.03;;;20.27;100.00
2178;BME280;1095;50.992;6.798;2023-08-20T02:49:31;101387.66;;;20.30;100.00
2178;BME280;1095;50.992;6.798;2023-08-20T02:51:57;101380.69;;;20.29;100.00
2178;BME280;1095;50.992;6.798;2023-08-20T02:54:25;101374.13;;;20.25;100.00
2178;BME280;1095;50.992;6.798;2023-08-20T02:56:52;101381.50;;;20.23;100.00
2178;BME280;1095;50.992;6.798;2023-08-20T02:59:18;101373.72;;;20.21;100.00
2178;BME280;1095;50.992;6.798;2023-08-20T03:01:45;101384.34;;;20.21;100.00
2178;BME280;1095;50.992;6.798;2023-08-20T03:04:12;101383.53;;;20.20;100.00
2178;BME280;1095;50.992;6.798;2023-08-20T03:06:38;101384.16;;;20.23;100.00
2178;BME280;1095;50.992;6.798;2023-08-20T03:09:05;101392.53;;;20.19;100.00
2178;BME280;1095;50.992;6.798;2023-08-20T03:11:33;101390.06;;;20.18;100.00
2178;BME280;1095;50.992;6.798;2023-08-20T03:14:00;101391.09;;;20.17;100.00
2178;BME280;1095;50.992;6.798;2023-08-20T03:16:27;101394.56;;;20.17;100.00
2178;BME280;1095;50.992;6.798;2023-08-20T03:18:54;101390.03;;;20.11;100.00
2178;BME280;1095;50.992;6.798;2023-08-20T03:21:20;101397.59;;;20.08;100.00
2178;BME280;1095;50.992;6.798;2023-08-20T03:23:47;101391.66;;;20.06;100.00
2178;BME280;1095;50.992;6.798;2023-08-20T03:26:14;101403.50;;;20.03;100.00
2178;BME280;1095;50.992;6.798;2023-08-20T03:28:42;101411.47;;;20.03;100.00
2178;BME280;1095;50.992;6.798;2023-08-20T03:31:08;101401.84;;;20.02;100.00
2178;BME280;1095;50.992;6.798;2023-08-20T03:33:35;101405.94;;;19.98;100.00
2178;BME280;1095;50.992;6.798;2023-08-20T03:36:02;101415.94;;;19.96;100.00
2178;BME280;1095;50.992;6.798;2023-08-20T03:38:29;101417.56;;;19.97;100.00
2178;BME280;1095;50.992;6.798;2023-08-20T03:40:55;101415.72;;;19.91;100.00
2178;BME280;1095;50.992;6.798;2023-08-20T03:43:22;101419.41;;;19.97;100.00
2178;BME280;1095;50.992;6.798;2023-08-20T03:45:51;101409.59;;;19.97;100.00
2178;BME280;1095;50.992;6.798;2023-08-20T03:48:18;101423.91;;;19.96;100.00
2178;BME280;1095;50.992;6.798;2023-08-20T03:50:44;101415.16;;;20.02;100.00
2178;BME280;1095;50.992;6.798;2023-08-20T03:53:11;101408.38;;;20.00;100.00
2178;BME280;1095;50.992;6.798;2023-08-20T03:55:37;101416.97;;;20.02;100.00
2178;BME280;1095;50.992;6.798;2023-08-20T03:58:04;101432.72;;;20.03;100.00
2178;BME280;1095;50.992;6.798;2023-08-20T04:00:30;101427.41;;;20.03;100.00
2178;BME280;1095;50.992;6.798;2023-08-20T04:02:58;101425.78;;;20.02;100.00
2178;BME280;1095;50.992;6.798;2023-08-20T04:05:25;101424.31;;;20.00;100.00
2178;BME280;1095;50.992;6.798;2023-08-20T04:07:51;101426.38;;;19.98;100.00
2178;BME280;1095;50.992;6.798;2023-08-20T04:10:18;101434.91;;;19.93;100.00
2178;BME280;1095;50.992;6.798;2023-08-20T04:12:45;101440.22;;;19.93;100.00
2178;BME280;1095;50.992;6.798;2023-08-20T04:15:11;101433.47;;;19.91;100.00
2178;BME280;1095;50.992;6.798;2023-08-20T04:17:38;101438.38;;;19.87;100.00
2178;BME280;1095;50.992;6.798;2023-08-20T04:20:07;101438.16;;;19.82;100.00
2178;BME280;1095;50.992;6.798;2023-08-20T04:22:34;101436.53;;;19.81;100.00
2178;BME280;1095;50.992;6.798;2023-08-20T04:25:02;101434.03;;;19.73;100.00
2178;BME280;1095;50.992;6.798;2023-08-20T04:27:29;101429.53;;;19.73;100.00
2178;BME280;1095;50.992;6.798;2023-08-20T04:29:56;101431.38;;;19.73;100.00
2178;BME280;1095;50.992;6.798;2023-08-20T04:32:23;101434.84;;;19.73;100.00
2178;BME280;1095;50.992;6.798;2023-08-20T04:34:49;101446.06;;;19.69;100.00
2178;BME280;1095;50.992;6.798;2023-08-20T04:37:18;101437.47;;;19.67;100.00
2178;BME280;1095;50.992;6.798;2023-08-20T04:39:45;101437.84;;;19.64;100.00
2178;BME280;1095;50.992;6.798;2023-08-20T04:42:12;101443.78;;;19.66;100.00
2178;BME280;1095;50.992;6.798;2023-08-20T04:44:38;101447.84;;;19.62;100.00
2178;BME280;1095;50.992;6.798;2023-08-20T04:47:05;101447.88;;;19.68;100.00
2178;BME280;1095;50.992;6.798;2023-08-20T04:49:31;101448.72;;;19.69;100.00
2178;BME280;1095;50.992;6.798;2023-08-20T04:51:58;101437.94;;;19.77;100.00
2178;BME280;1095;50.992;6.798;2023-08-20T04:54:26;101441.22;;;19.79;100.00
2178;BME280;1095;50.992;6.798;2023-08-20T04:56:53;101451.84;;;19.85;100.00
2178;BME280;1095;50.992;6.798;2023-08-20T04:59:19;101451.25;;;19.90;100.00
2178;BME280;1095;50.992;6.798;2023-08-20T05:01:46;101461.91;;;19.97;100.00
2178;BME280;1095;50.992;6.798;2023-08-20T05:04:12;101449.25;;;19.99;100.00
2178;BME280;1095;50.992;6.798;2023-08-20T05:06:42;101450.31;;;20.04;100.00
2178;BME280;1095;50.992;6.798;2023-08-20T05:09:25;101456.84;;;20.08;100.00
2178;BME280;1095;50.992;6.798;2023-08-20T05:12:18;101437.63;;;20.06;100.00
2178;BME280;1095;50.992;6.798;2023-08-20T05:14:57;101436.44;;;20.15;100.00
2178;BME280;1095;50.992;6.798;2023-08-20T05:20:24;101451.16;;;21.12;100.00
2178;BME280;1095;50.992;6.798;2023-08-20T05:27:14;101438.84;;;20.98;100.00
2178;BME280;1095;50.992;6.798;2023-08-20T07:38:59;101383.31;;;29.34;68.80
2178;BME280;1095;50.992;6.798;2023-08-20T07:41:40;101405.16;;;29.37;69.07
2178;BME280;1095;50.992;6.798;2023-08-20T07:44:10;101398.38;;;29.92;67.96
2178;BME280;1095;50.992;6.798;2023-08-20T07:46:47;101380.53;;;29.81;67.15
2178;BME280;1095;50.992;6.798;2023-08-20T07:49:19;101389.03;;;30.20;66.55
2178;BME280;1095;50.992;6.798;2023-08-20T07:51:46;101400.09;;;30.54;66.09
2178;BME280;1095;50.992;6.798;2023-08-20T07:54:15;101417.78;;;29.89;67.86
2178;BME280;1095;50.992;6.798;2023-08-20T07:56:41;101419.03;;;30.64;67.53
2178;BME280;1095;50.992;6.798;2023-08-20T07:59:08;101413.06;;;30.78;65.74
2178;BME280;1095;50.992;6.798;2023-08-20T08:01:34;101414.16;;;30.72;65.91
2178;BME280;1095;50.992;6.798;2023-08-20T08:04:02;101416.28;;;30.49;66.43
2178;BME280;1095;50.992;6.798;2023-08-20T08:06:28;101422.81;;;30.63;66.45
2178;BME280;1095;50.992;6.798;2023-08-20T08:08:55;101425.19;;;30.40;66.96
2178;BME280;1095;50.992;6.798;2023-08-20T08:11:23;101421.38;;;30.05;67.85
2178;BME280;1095;50.992;6.798;2023-08-20T08:13:50;101405.75;;;30.32;67.55
2178;BME280;1095;50.992;6.798;2023-08-20T08:16:17;101414.44;;;30.70;66.73
2178;BME280;1095;50.992;6.798;2023-08-20T08:18:43;101421.16;;;31.13;66.10
2178;BME280;1095;50.992;6.798;2023-08-20T08:21:10;101412.50;;;30.96;65.77
2178;BME280;1095;50.992;6.798;2023-08-20T08:23:36;101427.63;;;31.07;66.43
2178;BME280;1095;50.992;6.798;2023-08-20T08:26:03;101414.13;;;31.17;66.15
2178;BME280;1095;50.992;6.798;2023-08-20T08:28:31;101408.03;;;31.56;65.74
2178;BME280;1095;50.992;6.798;2023-08-20T08:30:58;101411.91;;;31.24;64.53
2178;BME280;1095;50.992;6.798;2023-08-20T08:33:24;101417.66;;;30.72;65.88
2178;BME280;1095;50.992;6.798;2023-08-20T08:35:51;101415.63;;;31.44;66.05
2178;BME280;1095;50.992;6.798;2023-08-20T08:38:17;101407.50;;;31.49;65.03
2178;BME280;1095;50.992;6.798;2023-08-20T08:40:45;101412.78;;;31.79;64.30
2178;BME280;1095;50.992;6.798;2023-08-20T08:43:13;101412.63;;;31.55;64.20
2178;BME280;1095;50.992;6.798;2023-08-20T08:45:45;101424.25;;;31.56;65.63
2178;BME280;1095;50.992;6.798;2023-08-20T08:48:13;101407.44;;;31.69;64.46
2178;BME280;1095;50.992;6.798;2023-08-20T08:50:42;101411.94;;;31.04;65.00
2178;BME280;1095;50.992;6.798;2023-08-20T08:53:10;101407.25;;;29.73;67.31
2178;BME280;1095;50.992;6.798;2023-08-20T08:55:36;101407.13;;;30.45;66.08
2178;BME280;1095;50.992;6.798;2023-08-20T08:58:03;101410.38;;;30.62;65.65
2178;BME280;1095;50.992;6.798;2023-08-20T09:00:30;101412.56;;;30.60;66.51
2178;BME280;1095;50.992;6.798;2023-08-20T09:02:59;101402.22;;;31.08;65.43
2178;BME280;1095;50.992;6.798;2023-08-20T09:05:26;101387.63;;;31.14;65.40
2178;BME280;1095;50.992;6.798;2023-08-20T09:07:55;101416.81;;;31.17;65.88
2178;BME280;1095;50.992;6.798;2023-08-20T09:10:24;101402.19;;;31.23;65.07
2178;BME280;1095;50.992;6.798;2023-08-20T09:12:54;101398.81;;;31.57;63.27
2178;BME280;1095;50.992;6.798;2023-08-20T09:15:21;101398.66;;;31.23;63.45
2178;BME280;1095;50.992;6.798;2023-08-20T09:17:47;101399.44;;;31.33;62.93
2178;BME280;1095;50.992;6.798;2023-08-20T09:20:15;101406.44;;;31.45;63.78
2178;BME280;1095;50.992;6.798;2023-08-20T09:22:48;101406.53;;;31.19;63.61
2178;BME280;1095;50.992;6.798;2023-08-20T09:25:15;101413.03;;;31.18;63.32
2178;BME280;1095;50.992;6.798;2023-08-20T09:27:43;101406.81;;;30.97;63.58
2178;BME280;1095;50.992;6.798;2023-08-20T09:30:10;101407.75;;;31.52;63.21
2178;BME280;1095;50.992;6.798;2023-08-20T09:32:44;101401.31;;;31.43;62.97
2178;BME280;1095;50.992;6.798;2023-08-20T09:35:19;101407.66;;;30.47;63.57
2178;BME280;1095;50.992;6.798;2023-08-20T09:37:45;101420.06;;;30.33;64.36
2178;BME280;1095;50.992;6.798;2023-08-20T09:40:12;101419.81;;;30.55;65.03
2178;BME280;1095;50.992;6.798;2023-08-20T09:42:39;101412.16;;;31.28;63.67
2178;BME280;1095;50.992;6.798;2023-08-20T09:45:09;101396.50;;;31.20;63.27
2178;BME280;1095;50.992;6.798;2023-08-20T09:47:36;101405.44;;;31.20;63.43
2178;BME280;1095;50.992;6.798;2023-08-20T09:50:06;101427.38;;;30.53;66.08
2178;BME280;1095;50.992;6.798;2023-08-20T09:52:38;101408.47;;;30.73;64.33
2178;BME280;1095;50.992;6.798;2023-08-20T09:55:08;101412.78;;;30.44;65.24
2178;BME280;1095;50.992;6.798;2023-08-20T09:57:36;101419.53;;;30.21;65.46
2178;BME280;1095;50.992;6.798;2023-08-20T10:00:04;101413.09;;;30.57;64.68
2178;BME280;1095;50.992;6.798;2023-08-20T10:02:35;101411.97;;;30.48;64.08
2178;BME280;1095;50.992;6.798;2023-08-20T10:05:02;101426.53;;;31.08;64.12
2178;BME280;1095;50.992;6.798;2023-08-20T10:07:29;101414.59;;;31.29;62.71
2178;BME280;1095;50.992;6.798;2023-08-20T10:10:00;101409.69;;;31.47;62.83
2178;BME280;1095;50.992;6.798;2023-08-20T10:12:28;101409.25;;;31.19;61.58
2178;BME280;1095;50.992;6.798;2023-08-20T10:14:56;101410.88;;;31.05;62.72
2178;BME280;1095;50.992;6.798;2023-08-20T10:17:23;101420.31;;;30.31;64.06
2178;BME280;1095;50.992;6.798;2023-08-20T10:19:51;101426.50;;;30.01;64.89
2178;BME280;1095;50.992;6.798;2023-08-20T10:22:18;101410.63;;;30.46;63.90
2178;BME280;1095;50.992;6.798;2023-08-20T10:24:48;101411.16;;;30.53;63.52
2178;BME280;1095;50.992;6.798;2023-08-20T10:27:25;101407.63;;;30.12;63.63
2178;BME280;1095;50.992;6.798;2023-08-20T10:29:53;101417.31;;;30.02;64.73
2178;BME280;1095;50.992;6.798;2023-08-20T10:32:18;101420.78;;;29.98;64.25
2178;BME280;1095;50.992;6.798;2023-08-20T10:34:50;101412.66;;;29.25;65.24
2178;BME280;1095;50.992;6.798;2023-08-20T10:37:26;101413.41;;;29.63;65.38
2178;BME280;1095;50.992;6.798;2023-08-20T10:40:05;101408.91;;;29.26;66.45
2178;BME280;1095;50.992;6.798;2023-08-20T10:42:40;101427.22;;;28.82;68.38
2178;BME280;1095;50.992;6.798;2023-08-20T10:45:08;101426.56;;;29.07;68.49
2178;BME280;1095;50.992;6.798;2023-08-20T10:47:42;101421.97;;;29.50;67.91
2178;BME280;1095;50.992;6.798;2023-08-20T10:50:10;101414.31;;;29.99;65.69
2178;BME280;1095;50.992;6.798;2023-08-20T10:52:40;101417.41;;;29.08;66.91
2178;BME280;1095;50.992;6.798;2023-08-20T10:55:08;101405.06;;;29.17;66.50
2178;BME280;1095;50.992;6.798;2023-08-20T10:57:37;101415.28;;;29.10;65.71
2178;BME280;1095;50.992;6.798;2023-08-20T11:00:05;101416.06;;;29.58;66.07
2178;BME280;1095;50.992;6.798;2023-08-20T11:02:36;101399.38;;;29.61;65.02
2178;BME280;1095;50.992;6.798;2023-08-20T11:05:15;101421.47;;;29.58;66.86
2178;BME280;1095;50.992;6.798;2023-08-20T11:07:51;101408.31;;;29.19;65.84
2178;BME280;1095;50.992;6.798;2023-08-20T11:10:18;101419.25;;;29.02;66.19
2178;BME280;1095;50.992;6.798;2023-08-20T11:12:46;101398.66;;;29.33;65.51
2178;BME280;1095;50.992;6.798;2023-08-20T11:15:13;101403.75;;;29.82;65.32
2178;BME280;1095;50.992;6.798;2023-08-20T11:17:42;101391.09;;;29.98;63.17
2178;BME280;1095;50.992;6.798;2023-08-20T11:20:09;101406.00;;;30.31;63.57
2178;BME280;1095;50.992;6.798;2023-08-20T11:22:38;101399.81;;;30.46;62.10
2178;BME280;1095;50.992;6.798;2023-08-20T11:25:09;101383.09;;;30.69;61.62
2178;BME280;1095;50.992;6.798;2023-08-20T11:27:36;101399.59;;;30.67;60.97
2178;BME280;1095;50.992;6.798;2023-08-20T11:30:06;101416.03;;;30.76;62.49
2178;BME280;1095;50.992;6.798;2023-08-20T11:32:33;101413.28;;;31.12;62.26
2178;BME280;1095;50.992;6.798;2023-08-20T11:34:59;101408.16;;;31.05;62.32
2178;BME280;1095;50.992;6.798;2023-08-20T11:37:27;101400.06;;;31.05;61.63
2178;BME280;1095;50.992;6.798;2023-08-20T11:39:53;101397.44;;;30.69;61.77
2178;BME280;1095;50.992;6.798;2023-08-20T11:42:20;101395.00;;;30.58;62.53
2178;BME280;1095;50.992;6.798;2023-08-20T11:44:47;101407.66;;;30.47;62.75
2178;BME280;1095;50.992;6.798;2023-08-20T11:47:15;101394.19;;;30.62;61.97
2178;BME280;1095;50.992;6.798;2023-08-20T11:49:43;101397.38;;;30.34;62.77
2178;BME280;1095;50.992;6.798;2023-08-20T11:52:10;101398.47;;;30.38;63.13
2178;BME280;1095;50.992;6.798;2023-08-20T11:54:39;101396.63;;;30.64;63.10
2178;BME280;1095;50.992;6.798;2023-08-20T11:57:06;101395.22;;;30.31;62.80
2178;BME280;1095;50.992;6.798;2023-08-20T11:59:33;101399.53;;;30.32;63.83
2178;BME280;1095;50.992;6.798;2023-08-20T12:02:01;101388.19;;;30.15;63.20
2178;BME280;1095;50.992;6.798;2023-08-20T12:04:30;101383.19;;;29.61;64.06
2178;BME280;1095;50.992;6.798;2023-08-20T12:07:04;101380.38;;;29.40;64.48
2178;BME280;1095;50.992;6.798;2023-08-20T12:09:32;101375.84;;;29.46;64.69
2178;BME280;1095;50.992;6.798;2023-08-20T12:11:59;101375.69;;;29.83;64.38
2178;BME280;1095;50.992;6.798;2023-08-20T12:14:27;101379.53;;;30.02;63.54
2178;BME280;1095;50.992;6.798;2023-08-20T12:16:53;101369.75;;;29.86;63.61
2178;BME280;1095;50.992;6.798;2023-08-20T12:19:20;101371.72;;;30.31;63.11
2178;BME280;1095;50.992;6.798;2023-08-20T12:21:48;101368.78;;;30.23;62.35
2178;BME280;1095;50.992;6.798;2023-08-20T12:24:15;101372.00;;;30.04;62.97
2178;BME280;1095;50.992;6.798;2023-08-20T12:26:44;101375.91;;;29.61;64.03
2178;BME280;1095;50.992;6.798;2023-08-20T12:29:11;101367.06;;;29.91;64.20
2178;BME280;1095;50.992;6.798;2023-08-20T12:31:38;101371.75;;;30.62;63.31
2178;BME280;1095;50.992;6.798;2023-08-20T12:34:05;101343.91;;;30.41;61.50
2178;BME280;1095;50.992;6.798;2023-08-20T12:36:31;101358.53;;;30.20;62.60
2178;BME280;1095;50.992;6.798;2023-08-20T12:38:59;101356.34;;;30.27;62.30
2178;BME280;1095;50.992;6.798;2023-08-20T12:41:26;101360.84;;;29.86;63.42
2178;BME280;1095;50.992;6.798;2023-08-20T12:43:52;101359.81;;;29.97;63.14
2178;BME280;1095;50.992;6.798;2023-08-20T12:46:19;101359.28;;;30.00;63.39
2178;BME280;1095;50.992;6.798;2023-08-20T12:48:46;101360.94;;;30.16;63.40
2178;BME280;1095;50.992;6.798;2023-08-20T12:51:13;101349.28;;;29.95;62.78
2178;BME280;1095;50.992;6.798;2023-08-20T12:53:42;101354.38;;;29.71;63.50
2178;BME280;1095;50.992;6.798;2023-08-20T12:56:13;101352.50;;;29.92;63.12
2178;BME280;1095;50.992;6.798;2023-08-20T12:58:40;101341.47;;;29.99;62.25
2178;BME280;1095;50.992;6.798;2023-08-20T13:01:07;101324.78;;;30.22;61.12
2178;BME280;1095;50.992;6.798;2023-08-20T13:03:34;101333.69;;;30.18;62.02
2178;BME280;1095;50.992;6.798;2023-08-20T13:06:02;101332.59;;;30.29;61.22
2178;BME280;1095;50.992;6.798;2023-08-20T13:08:29;101329.34;;;30.32;60.46
2178;BME280;1095;50.992;6.798;2023-08-20T13:10:57;101340.13;;;30.42;61.28
2178;BME280;1095;50.992;6.798;2023-08-20T13:13:26;101331.50;;;30.40;60.21
2178;BME280;1095;50.992;6.798;2023-08-20T13:15:53;101338.53;;;30.31;60.66
2178;BME280;1095;50.992;6.798;2023-08-20T13:18:21;101330.41;;;30.26;60.05
2178;BME280;1095;50.992;6.798;2023-08-20T13:20:51;101343.13;;;30.05;60.63
2178;BME280;1095;50.992;6.798;2023-08-20T13:23:17;101336.38;;;30.23;60.74
2178;BME280;1095;50.992;6.798;2023-08-20T13:25:44;101335.81;;;30.31;61.07
2178;BME280;1095;50.992;6.798;2023-08-20T13:28:10;101338.78;;;30.45;60.09
2178;BME280;1095;50.992;6.798;2023-08-20T13:30:38;101327.72;;;30.46;59.48
2178;BME280;1095;50.992;6.798;2023-08-20T13:33:05;101333.94;;;30.47;59.32
2178;BME280;1095;50.992;6.798;2023-08-20T13:35:32;101323.94;;;30.52;58.75
2178;BME280;1095;50.992;6.798;2023-08-20T13:37:59;101325.03;;;30.36;58.76
2178;BME280;1095;50.992;6.798;2023-08-20T13:40:25;101337.44;;;30.27;58.84
2178;BME280;1095;50.992;6.798;2023-08-20T13:42:52;101329.38;;;30.22;58.42
2178;BME280;1095;50.992;6.798;2023-08-20T13:45:19;101326.63;;;30.27;58.61
2178;BME280;1095;50.992;6.798;2023-08-20T15:03:42;101296.91;;;29.71;59.88
2178;BME280;1095;50.992;6.798;2023-08-20T15:13:51;101312.97;;;29.40;62.53
2178;BME280;1095;50.992;6.798;2023-08-20T18:23:07;101312.69;;;26.58;67.63
2178;BME280;1095;50.992;6.798;2023-08-20T18:25:33;101280.38;;;26.31;67.57
2178;BME280;1095;50.992;6.798;2023-08-20T18:28:00;101309.47;;;26.39;68.77
2178;BME280;1095;50.992;6.798;2023-08-20T18:30:27;101306.88;;;26.44;68.44
2178;BME280;1095;50.992;6.798;2023-08-20T18:32:55;101299.25;;;26.36;68.64
2178;BME280;1095;50.992;6.798;2023-08-20T18:35:25;101291.97;;;26.20;68.48
2178;BME280;1095;50.992;6.798;2023-08-20T18:48:48;101321.03;;;26.11;68.00
2178;BME280;1095;50.992;6.798;2023-08-20T18:51:30;101306.81;;;25.94;68.46
2178;BME280;1095;50.992;6.798;2023-08-20T18:54:13;101304.00;;;25.72;68.82
2178;BME280;1095;50.992;6.798;2023-08-20T18:56:59;101334.72;;;25.81;69.39
2178;BME280;1095;50.992;6.798;2023-08-20T18:59:29;101316.59;;;25.60;69.59
2178;BME280;1095;50.992;6.798;2023-08-20T19:01:56;101327.06;;;25.61;69.56
2178;BME280;1095;50.992;6.798;2023-08-20T19:08:23;101332.75;;;25.48;70.49
2178;BME280;1095;50.992;6.798;2023-08-20T19:10:28;101347.41;;;25.45;70.48
2178;BME280;1095;50.992;6.798;2023-08-20T19:13:01;101356.28;;;25.46;70.70
2178;BME280;1095;50.992;6.798;2023-08-20T19:15:43;101352.78;;;25.45;70.27
2178;BME280;1095;50.992;6.798;2023-08-20T19:18:10;101354.44;;;25.35;70.66
2178;BME280;1095;50.992;6.798;2023-08-20T19:20:44;101348.97;;;25.30;70.49
2178;BME280;1095;50.992;6.798;2023-08-20T19:23:10;101360.16;;;25.27;70.95
2178;BME280;1095;50.992;6.798;2023-08-20T19:25:37;101361.31;;;25.31;71.30
2178;BME280;1095;50.992;6.798;2023-08-20T19:28:04;101360.03;;;25.22;71.19
2178;BME280;1095;50.992;6.798;2023-08-20T19:30:32;101360.63;;;25.24;71.20
2178;BME280;1095;50.992;6.798;2023-08-20T19:32:58;101359.22;;;25.21;71.47
2178;BME280;1095;50.992;6.798;2023-08-20T19:35:27;101366.22;;;25.22;71.75
2178;BME280;1095;50.992;6.798;2023-08-20T19:37:55;101370.41;;;25.18;71.97
2178;BME280;1095;50.992;6.798;2023-08-20T19:40:21;101374.47;;;25.21;71.97
2178;BME280;1095;50.992;6.798;2023-08-20T19:42:48;101377.28;;;25.14;72.07
2178;BME280;1095;50.992;6.798;2023-08-20T19:45:15;101380.31;;;25.06;72.36
2178;BME280;1095;50.992;6.798;2023-08-20T19:47:41;101388.47;;;24.99;72.92
2178;BME280;1095;50.992;6.798;2023-08-20T19:50:09;101383.09;;;24.88;73.25
2178;BME280;1095;50.992;6.798;2023-08-20T19:52:35;101389.81;;;24.78;73.79
2178;BME280;1095;50.992;6.798;2023-08-20T19:55:04;101389.00;;;24.66;74.28
2178;BME280;1095;50.992;6.798;2023-08-20T19:57:31;101396.19;;;24.66;74.68
2178;BME280;1095;50.992;6.798;2023-08-20T19:59:58;101390.94;;;24.59;74.90
2178;BME280;1095;50.992;6.798;2023-08-20T20:02:25;101392.72;;;24.54;74.84
2178;BME280;1095;50.992;6.798;2023-08-20T20:04:51;101396.91;;;24.50;75.24
2178;BME280;1095;50.992;6.798;2023-08-20T20:07:18;101375.13;;;24.46;74.82
2178;BME280;1095;50.992;6.798;2023-08-20T20:09:45;101394.44;;;24.48;74.91
2178;BME280;1095;50.992;6.798;2023-08-20T20:12:13;101388.75;;;24.44;75.31
2178;BME280;1095;50.992;6.798;2023-08-20T20:14:40;101403.16;;;24.43;75.57